sensor_id;sensor_type;location;lat;lon;timestamp;P1;durP1;ratioP1;P2;durP2;ratioP2
53674;SDS011;39574;50.534;8.500;2022-08-07T00:04:01;1.5;;;0.7;;
53674;SDS011;39574;50.534;8.500;2022-08-07T00:09:00;1.4;;;0.7;;
53674;SDS011;39574;50.534;8.500;2022-08-07T00:13:59;1.2;;;0.5;;
53674;SDS011;39574;50.534;8.500;2022-08-07T00:18:59;1.2;;;0.6;;
53674;SDS011;39574;50.534;8.500;2022-08-07T00:23:58;1.7;;;0.6;;
53674;SDS011;39574;50.534;8.500;2022-08-07T00:28:57;2.0;;;0.6;;
53674;SDS011;39574;50.534;8.500;2022-08-07T00:33:56;1.7;;;0.6;;
53674;SDS011;39574;50.534;8.500;2022-08-07T00:38:55;1.5;;;0.5;;
53674;SDS011;39574;50.534;8.500;2022-08-07T00:43:55;1.2;;;0.5;;
53674;SDS011;39574;50.534;8.500;2022-08-07T00:48:54;1.4;;;0.5;;
53674;SDS011;39574;50.534;8.500;2022-08-07T00:53:53;1.6;;;0.6;;
53674;SDS011;39574;50.534;8.500;2022-08-07T00:58:52;1.6;;;0.6;;
53674;SDS011;39574;50.534;8.500;2022-08-07T01:03:52;1.5;;;0.6;;
53674;SDS011;39574;50.534;8.500;2022-08-07T01:08:51;1.6;;;0.6;;
53674;SDS011;39574;50.534;8.500;2022-08-07T01:13:50;1.5;;;0.6;;
53674;SDS011;39574;50.534;8.500;2022-08-07T01:18:49;1.3;;;0.6;;
53674;SDS011;39574;50.534;8.500;2022-08-07T01:23:50;1.7;;;0.6;;
53674;SDS011;39574;50.534;8.500;2022-08-07T01:28:49;2.0;;;0.6;;
53674;SDS011;39574;50.534;8.500;2022-08-07T01:33:47;2.0;;;0.6;;
53674;SDS011;39574;50.534;8.500;2022-08-07T01:38:46;2.1;;;0.6;;
53674;SDS011;39574;50.534;8.500;2022-08-07T01:43:46;1.8;;;0.6;;
53674;SDS011;39574;50.534;8.500;2022-08-07T01:48:45;1.5;;;0.6;;
53674;SDS011;39574;50.534;8.500;2022-08-07T01:53:45;1.3;;;0.5;;
53674;SDS011;39574;50.534;8.500;2022-08-07T01:58:47;1.2;;;0.5;;
53674;SDS011;39574;50.534;8.500;2022-08-07T02:03:44;1.3;;;0.5;;
53674;SDS011;39574;50.534;8.500;2022-08-07T02:08:42;1.3;;;0.5;;
53674;SDS011;39574;50.534;8.500;2022-08-07T02:13:41;1.3;;;0.6;;
53674;SDS011;39574;50.534;8.500;2022-08-07T02:18:40;1.6;;;0.6;;
53674;SDS011;39574;50.534;8.500;2022-08-07T02:23:39;1.5;;;0.6;;
53674;SDS011;39574;50.534;8.500;2022-08-07T02:28:38;1.8;;;0.6;;
53674;SDS011;39574;50.534;8.500;2022-08-07T02:33:38;1.9;;;0.6;;
53674;SDS011;39574;50.534;8.500;2022-08-07T02:38:37;2.2;;;0.6;;
53674;SDS011;39574;50.534;8.500;2022-08-07T02:43:37;1.8;;;0.6;;
53674;SDS011;39574;50.534;8.500;2022-08-07T02:48:35;1.5;;;0.6;;
53674;SDS011;39574;50.534;8.500;2022-08-07T02:53:35;1.3;;;0.6;;
53674;SDS011;39574;50.534;8.500;2022-08-07T02:58:34;1.0;;;0.5;;
53674;SDS011;39574;50.534;8.500;2022-08-07T03:03:33;0.9;;;0.5;;
53674;SDS011;39574;50.534;8.500;2022-08-07T03:08:32;0.9;;;0.5;;
53674;SDS011;39574;50.534;8.500;2022-08-07T03:13:31;1.0;;;0.5;;
53674;SDS011;39574;50.534;8.500;2022-08-07T03:18:30;1.5;;;0.6;;
53674;SDS011;39574;50.534;8.500;2022-08-07T03:23:29;1.5;;;0.5;;
53674;SDS011;39574;50.534;8.500;2022-08-07T03:28:28;1.3;;;0.6;;
53674;SDS011;39574;50.534;8.500;2022-08-07T03:33:28;1.3;;;0.6;;
53674;SDS011;39574;50.534;8.500;2022-08-07T03:38:27;1.3;;;0.6;;
53674;SDS011;39574;50.534;8.500;2022-08-07T03:43:26;2.2;;;0.7;;
53674;SDS011;39574;50.534;8.500;2022-08-07T03:48:25;2.0;;;0.7;;
53674;SDS011;39574;50.534;8.500;2022-08-07T03:53:24;2.0;;;0.8;;
53674;SDS011;39574;50.534;8.500;2022-08-07T03:58:23;1.9;;;0.8;;
53674;SDS011;39574;50.534;8.500;2022-08-07T04:03:22;1.8;;;0.8;;
53674;SDS011;39574;50.534;8.500;2022-08-07T04:08:21;1.6;;;0.7;;
53674;SDS011;39574;50.534;8.500;2022-08-07T04:13:20;2.0;;;0.7;;
53674;SDS011;39574;50.534;8.500;2022-08-07T04:18:20;1.7;;;0.7;;
53674;SDS011;39574;50.534;8.500;2022-08-07T04:23:19;1.3;;;0.6;;
53674;SDS011;39574;50.534;8.500;2022-08-07T04:28:18;1.2;;;0.6;;
53674;SDS011;39574;50.534;8.500;2022-08-07T04:33:17;1.0;;;0.6;;
53674;SDS011;39574;50.534;8.500;2022-08-07T04:38:16;1.3;;;0.7;;
53674;SDS011;39574;50.534;8.500;2022-08-07T04:43:16;1.7;;;0.7;;
53674;SDS011;39574;50.534;8.500;2022-08-07T04:48:17;1.8;;;0.7;;
53674;SDS011;39574;50.534;8.500;2022-08-07T04:53:15;1.6;;;0.7;;
53674;SDS011;39574;50.534;8.500;2022-08-07T04:58:16;1.5;;;0.6;;
53674;SDS011;39574;50.534;8.500;2022-08-07T05:03:18;1.3;;;0.7;;
53674;SDS011;39574;50.534;8.500;2022-08-07T05:08:11;1.5;;;0.7;;
53674;SDS011;39574;50.534;8.500;2022-08-07T05:13:13;3.4;;;0.8;;
53674;SDS011;39574;50.534;8.500;2022-08-07T05:18:11;3.0;;;0.8;;
53674;SDS011;39574;50.534;8.500;2022-08-07T05:23:09;2.6;;;0.8;;
53674;SDS011;39574;50.534;8.500;2022-08-07T05:28:08;2.0;;;0.8;;
53674;SDS011;39574;50.534;8.500;2022-08-07T05:38:07;1.6;;;0.9;;
53674;SDS011;39574;50.534;8.500;2022-08-07T05:43:05;1.6;;;0.9;;
53674;SDS011;39574;50.534;8.500;2022-08-07T05:48:04;1.7;;;1.0;;
53674;SDS011;39574;50.534;8.500;2022-08-07T05:53:03;1.7;;;1.0;;
53674;SDS011;39574;50.534;8.500;2022-08-07T05:58:02;2.2;;;1.1;;
53674;SDS011;39574;50.534;8.500;2022-08-07T06:03:02;2.1;;;1.1;;
53674;SDS011;39574;50.534;8.500;2022-08-07T06:08:01;2.8;;;1.5;;
53674;SDS011;39574;50.534;8.500;2022-08-07T06:13:00;3.8;;;1.9;;
53674;SDS011;39574;50.534;8.500;2022-08-07T06:17:59;4.4;;;2.2;;
53674;SDS011;39574;50.534;8.500;2022-08-07T06:22:59;4.7;;;2.4;;
53674;SDS011;39574;50.534;8.500;2022-08-07T06:28:00;4.6;;;2.2;;
53674;SDS011;39574;50.534;8.500;2022-08-07T06:32:58;4.2;;;2.0;;
53674;SDS011;39574;50.534;8.500;2022-08-07T06:37:56;3.7;;;1.8;;
53674;SDS011;39574;50.534;8.500;2022-08-07T06:42:56;3.4;;;1.6;;
53674;SDS011;39574;50.534;8.500;2022-08-07T06:47:55;3.1;;;1.4;;
53674;SDS011;39574;50.534;8.500;2022-08-07T06:52:54;2.7;;;1.2;;
53674;SDS011;39574;50.534;8.500;2022-08-07T06:57:54;2.8;;;1.2;;
53674;SDS011;39574;50.534;8.500;2022-08-07T07:02:53;2.8;;;1.2;;
53674;SDS011;39574;50.534;8.500;2022-08-07T07:07:52;2.6;;;1.3;;
53674;SDS011;39574;50.534;8.500;2022-08-07T07:12:52;2.3;;;1.1;;
53674;SDS011;39574;50.534;8.500;2022-08-07T07:17:52;2.0;;;0.9;;
53674;SDS011;39574;50.534;8.500;2022-08-07T07:22:51;1.9;;;0.8;;
53674;SDS011;39574;50.534;8.500;2022-08-07T07:27:52;1.7;;;0.7;;
53674;SDS011;39574;50.534;8.500;2022-08-07T07:32:49;1.5;;;0.6;;
53674;SDS011;39574;50.534;8.500;2022-08-07T07:37:49;1.3;;;0.5;;
53674;SDS011;39574;50.534;8.500;2022-08-07T07:42:49;1.4;;;0.5;;
53674;SDS011;39574;50.534;8.500;2022-08-07T07:47:48;1.3;;;0.4;;
53674;SDS011;39574;50.534;8.500;2022-08-07T07:52:47;3.4;;;0.5;;
53674;SDS011;39574;50.534;8.500;2022-08-07T07:57:48;2.8;;;0.5;;
53674;SDS011;39574;50.534;8.500;2022-08-07T08:02:47;2.3;;;0.5;;
53674;SDS011;39574;50.534;8.500;2022-08-07T08:07:46;2.1;;;0.5;;
53674;SDS011;39574;50.534;8.500;2022-08-07T08:12:45;2.1;;;0.5;;
53674;SDS011;39574;50.534;8.500;2022-08-07T08:17:45;1.7;;;0.5;;
53674;SDS011;39574;50.534;8.500;2022-08-07T08:22:45;1.4;;;0.5;;
53674;SDS011;39574;50.534;8.500;2022-08-07T08:27:45;1.9;;;0.5;;
53674;SDS011;39574;50.534;8.500;2022-08-07T08:32:45;1.5;;;0.5;;
53674;SDS011;39574;50.534;8.500;2022-08-07T08:37:43;1.6;;;0.5;;
53674;SDS011;39574;50.534;8.500;2022-08-07T08:42:44;1.5;;;0.5;;
53674;SDS011;39574;50.534;8.500;2022-08-07T08:47:43;1.1;;;0.4;;
53674;SDS011;39574;50.534;8.500;2022-08-07T08:52:44;1.1;;;0.4;;
53674;SDS011;39574;50.534;8.500;2022-08-07T08:57:43;1.2;;;0.4;;
53674;SDS011;39574;50.534;8.500;2022-08-07T09:02:43;1.5;;;0.4;;
53674;SDS011;39574;50.534;8.500;2022-08-07T09:07:42;1.4;;;0.4;;
53674;SDS011;39574;50.534;8.500;2022-08-07T09:12:46;1.4;;;0.4;;
53674;SDS011;39574;50.534;8.500;2022-08-07T09:17:42;1.4;;;0.5;;
53674;SDS011;39574;50.534;8.500;2022-08-07T09:22:43;1.4;;;0.6;;
53674;SDS011;39574;50.534;8.500;2022-08-07T09:27:41;1.6;;;0.5;;
53674;SDS011;39574;50.534;8.500;2022-08-07T09:32:45;1.4;;;0.5;;
53674;SDS011;39574;50.534;8.500;2022-08-07T09:37:40;1.3;;;0.4;;
53674;SDS011;39574;50.534;8.500;2022-08-07T09:42:42;1.1;;;0.4;;
53674;SDS011;39574;50.534;8.500;2022-08-07T09:47:42;1.3;;;0.4;;
53674;SDS011;39574;50.534;8.500;2022-08-07T09:52:39;1.4;;;0.4;;
53674;SDS011;39574;50.534;8.500;2022-08-07T09:57:44;1.4;;;0.4;;
53674;SDS011;39574;50.534;8.500;2022-08-07T10:03:47;1.3;;;0.4;;
53674;SDS011;39574;50.534;8.500;2022-08-07T10:07:39;1.4;;;0.4;;
53674;SDS011;39574;50.534;8.500;2022-08-07T10:12:46;1.3;;;0.4;;
53674;SDS011;39574;50.534;8.500;2022-08-07T10:17:48;1.4;;;0.4;;
53674;SDS011;39574;50.534;8.500;2022-08-07T10:22:42;1.1;;;0.3;;
53674;SDS011;39574;50.534;8.500;2022-08-07T10:27:45;1.0;;;0.3;;
53674;SDS011;39574;50.534;8.500;2022-08-07T10:32:43;1.6;;;0.3;;
53674;SDS011;39574;50.534;8.500;2022-08-07T10:37:38;1.4;;;0.3;;
53674;SDS011;39574;50.534;8.500;2022-08-07T10:42:37;1.3;;;0.4;;
53674;SDS011;39574;50.534;8.500;2022-08-07T10:47:39;1.4;;;0.5;;
53674;SDS011;39574;50.534;8.500;2022-08-07T10:52:37;1.4;;;0.5;;
53674;SDS011;39574;50.534;8.500;2022-08-07T11:02:36;1.4;;;0.4;;
53674;SDS011;39574;50.534;8.500;2022-08-07T11:07:37;1.5;;;0.4;;
53674;SDS011;39574;50.534;8.500;2022-08-07T11:12:37;1.4;;;0.5;;
53674;SDS011;39574;50.534;8.500;2022-08-07T11:17:37;1.1;;;0.4;;
53674;SDS011;39574;50.534;8.500;2022-08-07T11:22:37;0.9;;;0.4;;
53674;SDS011;39574;50.534;8.500;2022-08-07T11:27:39;0.7;;;0.3;;
53674;SDS011;39574;50.534;8.500;2022-08-07T11:32:36;0.7;;;0.3;;
53674;SDS011;39574;50.534;8.500;2022-08-07T11:37:46;1.0;;;0.4;;
53674;SDS011;39574;50.534;8.500;2022-08-07T11:42:38;1.1;;;0.4;;
53674;SDS011;39574;50.534;8.500;2022-08-07T11:47:37;1.1;;;0.4;;
53674;SDS011;39574;50.534;8.500;2022-08-07T11:52:38;1.4;;;0.4;;
53674;SDS011;39574;50.534;8.500;2022-08-07T11:57:36;1.4;;;0.4;;
53674;SDS011;39574;50.534;8.500;2022-08-07T12:02:41;1.4;;;0.4;;
53674;SDS011;39574;50.534;8.500;2022-08-07T12:07:35;1.1;;;0.5;;
53674;SDS011;39574;50.534;8.500;2022-08-07T12:12:34;1.1;;;0.5;;
53674;SDS011;39574;50.534;8.500;2022-08-07T12:17:37;1.3;;;0.5;;
53674;SDS011;39574;50.534;8.500;2022-08-07T12:22:34;1.3;;;0.5;;
53674;SDS011;39574;50.534;8.500;2022-08-07T12:27:34;1.3;;;0.5;;
53674;SDS011;39574;50.534;8.500;2022-08-07T12:32:35;1.2;;;0.5;;
53674;SDS011;39574;50.534;8.500;2022-08-07T12:37:33;1.3;;;0.5;;
53674;SDS011;39574;50.534;8.500;2022-08-07T12:42:34;1.3;;;0.4;;
53674;SDS011;39574;50.534;8.500;2022-08-07T12:47:36;1.7;;;0.5;;
53674;SDS011;39574;50.534;8.500;2022-08-07T12:52:35;1.8;;;0.5;;
53674;SDS011;39574;50.534;8.500;2022-08-07T12:57:35;1.6;;;0.5;;
53674;SDS011;39574;50.534;8.500;2022-08-07T13:02:41;1.6;;;0.4;;
53674;SDS011;39574;50.534;8.500;2022-08-07T13:07:37;1.3;;;0.4;;
53674;SDS011;39574;50.534;8.500;2022-08-07T13:12:39;1.3;;;0.5;;
53674;SDS011;39574;50.534;8.500;2022-08-07T13:17:34;1.4;;;0.5;;
53674;SDS011;39574;50.534;8.500;2022-08-07T13:22:35;1.3;;;0.5;;
53674;SDS011;39574;50.534;8.500;2022-08-07T13:27:35;1.3;;;0.5;;
53674;SDS011;39574;50.534;8.500;2022-08-07T13:32:36;1.6;;;0.5;;
53674;SDS011;39574;50.534;8.500;2022-08-07T13:37:36;1.8;;;0.5;;
53674;SDS011;39574;50.534;8.500;2022-08-07T13:42:34;1.6;;;0.5;;
53674;SDS011;39574;50.534;8.500;2022-08-07T13:47:34;1.6;;;0.5;;
53674;SDS011;39574;50.534;8.500;2022-08-07T13:52:36;1.3;;;0.5;;
53674;SDS011;39574;50.534;8.500;2022-08-07T13:57:33;1.3;;;0.4;;
53674;SDS011;39574;50.534;8.500;2022-08-07T14:02:34;1.0;;;0.4;;
53674;SDS011;39574;50.534;8.500;2022-08-07T14:07:37;1.2;;;0.4;;
53674;SDS011;39574;50.534;8.500;2022-08-07T14:12:35;1.3;;;0.5;;
53674;SDS011;39574;50.534;8.500;2022-08-07T14:17:35;1.1;;;0.5;;
53674;SDS011;39574;50.534;8.500;2022-08-07T14:22:34;1.3;;;0.5;;
53674;SDS011;39574;50.534;8.500;2022-08-07T14:27:34;1.1;;;0.4;;
53674;SDS011;39574;50.534;8.500;2022-08-07T14:32:36;1.0;;;0.4;;
53674;SDS011;39574;50.534;8.500;2022-08-07T14:37:34;1.3;;;0.5;;
53674;SDS011;39574;50.534;8.500;2022-08-07T14:42:34;1.1;;;0.4;;
53674;SDS011;39574;50.534;8.500;2022-08-07T14:47:34;1.1;;;0.5;;
53674;SDS011;39574;50.534;8.500;2022-08-07T14:52:34;1.6;;;0.9;;
53674;SDS011;39574;50.534;8.500;2022-08-07T14:57:34;1.4;;;0.8;;
53674;SDS011;39574;50.534;8.500;2022-08-07T15:02:34;1.3;;;0.7;;
53674;SDS011;39574;50.534;8.500;2022-08-07T15:07:33;1.5;;;0.6;;
53674;SDS011;39574;50.534;8.500;2022-08-07T15:12:34;1.4;;;0.5;;
53674;SDS011;39574;50.534;8.500;2022-08-07T15:17:34;1.2;;;0.5;;
53674;SDS011;39574;50.534;8.500;2022-08-07T15:22:41;1.4;;;0.5;;
53674;SDS011;39574;50.534;8.500;2022-08-07T15:27:33;1.2;;;0.4;;
53674;SDS011;39574;50.534;8.500;2022-08-07T15:32:33;1.8;;;0.4;;
53674;SDS011;39574;50.534;8.500;2022-08-07T15:37:33;1.8;;;0.5;;
53674;SDS011;39574;50.534;8.500;2022-08-07T15:42:35;1.6;;;0.6;;
53674;SDS011;39574;50.534;8.500;2022-08-07T15:47:33;1.7;;;0.6;;
53674;SDS011;39574;50.534;8.500;2022-08-07T15:52:34;1.7;;;0.6;;
53674;SDS011;39574;50.534;8.500;2022-08-07T15:57:33;1.7;;;0.6;;
53674;SDS011;39574;50.534;8.500;2022-08-07T16:02:37;1.9;;;0.5;;
53674;SDS011;39574;50.534;8.500;2022-08-07T16:07:39;1.7;;;0.4;;
53674;SDS011;39574;50.534;8.500;2022-08-07T16:12:36;1.5;;;0.5;;
53674;SDS011;39574;50.534;8.500;2022-08-07T16:17:38;1.6;;;0.5;;
53674;SDS011;39574;50.534;8.500;2022-08-07T16:22:51;1.2;;;0.5;;
53674;SDS011;39574;50.534;8.500;2022-08-07T16:27:33;1.4;;;0.5;;
53674;SDS011;39574;50.534;8.500;2022-08-07T16:32:33;1.7;;;0.4;;
53674;SDS011;39574;50.534;8.500;2022-08-07T16:37:55;1.4;;;0.4;;
53674;SDS011;39574;50.534;8.500;2022-08-07T16:42:34;1.2;;;0.4;;
53674;SDS011;39574;50.534;8.500;2022-08-07T16:48:09;0.9;;;0.4;;
53674;SDS011;39574;50.534;8.500;2022-08-07T16:52:37;1.4;;;0.4;;
53674;SDS011;39574;50.534;8.500;2022-08-07T16:57:32;1.9;;;0.5;;
53674;SDS011;39574;50.534;8.500;2022-08-07T17:02:35;1.8;;;0.6;;
53674;SDS011;39574;50.534;8.500;2022-08-07T17:07:36;1.9;;;0.8;;
53674;SDS011;39574;50.534;8.500;2022-08-07T17:12:33;2.1;;;0.9;;
53674;SDS011;39574;50.534;8.500;2022-08-07T17:17:35;1.9;;;0.9;;
53674;SDS011;39574;50.534;8.500;2022-08-07T17:22:33;1.6;;;0.8;;
53674;SDS011;39574;50.534;8.500;2022-08-07T17:27:34;2.5;;;0.8;;
53674;SDS011;39574;50.534;8.500;2022-08-07T17:32:35;2.0;;;0.7;;
53674;SDS011;39574;50.534;8.500;2022-08-07T17:37:33;1.9;;;0.7;;
53674;SDS011;39574;50.534;8.500;2022-08-07T17:42:35;1.7;;;0.8;;
53674;SDS011;39574;50.534;8.500;2022-08-07T17:47:33;1.4;;;0.9;;
53674;SDS011;39574;50.534;8.500;2022-08-07T17:52:33;2.5;;;2.1;;
53674;SDS011;39574;50.534;8.500;2022-08-07T17:57:32;6.0;;;5.6;;
53674;SDS011;39574;50.534;8.500;2022-08-07T18:02:32;8.0;;;7.5;;
53674;SDS011;39574;50.534;8.500;2022-08-07T18:07:35;6.3;;;5.5;;
53674;SDS011;39574;50.534;8.500;2022-08-07T18:12:32;4.4;;;3.5;;
53674;SDS011;39574;50.534;8.500;2022-08-07T18:22:31;2.6;;;1.5;;
53674;SDS011;39574;50.534;8.500;2022-08-07T18:28:05;1.9;;;0.6;;
53674;SDS011;39574;50.534;8.500;2022-08-07T18:32:36;1.5;;;0.5;;
53674;SDS011;39574;50.534;8.500;2022-08-07T18:37:32;1.8;;;0.5;;
53674;SDS011;39574;50.534;8.500;2022-08-07T18:42:31;1.8;;;0.5;;
53674;SDS011;39574;50.534;8.500;2022-08-07T18:47:30;2.3;;;0.6;;
53674;SDS011;39574;50.534;8.500;2022-08-07T18:52:33;2.8;;;0.7;;
53674;SDS011;39574;50.534;8.500;2022-08-07T18:57:32;3.2;;;0.7;;
53674;SDS011;39574;50.534;8.500;2022-08-07T19:02:28;3.7;;;0.8;;
53674;SDS011;39574;50.534;8.500;2022-08-07T19:07:30;3.7;;;0.8;;
53674;SDS011;39574;50.534;8.500;2022-08-07T19:12:28;2.8;;;0.8;;
53674;SDS011;39574;50.534;8.500;2022-08-07T19:17:30;2.5;;;0.7;;
53674;SDS011;39574;50.534;8.500;2022-08-07T19:22:27;1.6;;;0.5;;
53674;SDS011;39574;50.534;8.500;2022-08-07T19:27:28;1.2;;;0.5;;
53674;SDS011;39574;50.534;8.500;2022-08-07T19:32:26;1.0;;;0.4;;
53674;SDS011;39574;50.534;8.500;2022-08-07T19:37:25;0.8;;;0.4;;
53674;SDS011;39574;50.534;8.500;2022-08-07T19:42:25;1.2;;;0.4;;
53674;SDS011;39574;50.534;8.500;2022-08-07T19:47:25;1.4;;;0.5;;
53674;SDS011;39574;50.534;8.500;2022-08-07T19:52:25;3.1;;;1.0;;
53674;SDS011;39574;50.534;8.500;2022-08-07T19:57:25;3.7;;;1.3;;
53674;SDS011;39574;50.534;8.500;2022-08-07T20:02:26;3.8;;;1.4;;
53674;SDS011;39574;50.534;8.500;2022-08-07T20:07:24;4.2;;;1.8;;
53674;SDS011;39574;50.534;8.500;2022-08-07T20:12:23;3.9;;;2.0;;
53674;SDS011;39574;50.534;8.500;2022-08-07T20:17:22;4.2;;;2.5;;
53674;SDS011;39574;50.534;8.500;2022-08-07T20:22:23;4.2;;;2.6;;
53674;SDS011;39574;50.534;8.500;2022-08-07T20:27:22;3.2;;;1.9;;
53674;SDS011;39574;50.534;8.500;2022-08-07T20:32:22;2.8;;;1.6;;
53674;SDS011;39574;50.534;8.500;2022-08-07T20:37:22;2.6;;;1.4;;
53674;SDS011;39574;50.534;8.500;2022-08-07T20:42:20;2.7;;;1.5;;
53674;SDS011;39574;50.534;8.500;2022-08-07T20:47:20;3.0;;;1.8;;
53674;SDS011;39574;50.534;8.500;2022-08-07T20:52:20;3.3;;;2.0;;
53674;SDS011;39574;50.534;8.500;2022-08-07T20:57:19;3.7;;;2.0;;
53674;SDS011;39574;50.534;8.500;2022-08-07T21:02:20;3.4;;;1.8;;
53674;SDS011;39574;50.534;8.500;2022-08-07T21:07:18;2.8;;;1.6;;
53674;SDS011;39574;50.534;8.500;2022-08-07T21:12:17;2.2;;;1.2;;
53674;SDS011;39574;50.534;8.500;2022-08-07T21:17:17;1.8;;;0.9;;
53674;SDS011;39574;50.534;8.500;2022-08-07T21:22:16;1.6;;;0.7;;
53674;SDS011;39574;50.534;8.500;2022-08-07T21:27:18;1.7;;;0.7;;
53674;SDS011;39574;50.534;8.500;2022-08-07T21:32:18;1.5;;;0.8;;
53674;SDS011;39574;50.534;8.500;2022-08-07T21:37:17;2.1;;;0.9;;
53674;SDS011;39574;50.534;8.500;2022-08-07T21:42:16;2.1;;;0.8;;
53674;SDS011;39574;50.534;8.500;2022-08-07T21:47:15;2.3;;;0.8;;
53674;SDS011;39574;50.534;8.500;2022-08-07T21:52:15;2.1;;;0.8;;
53674;SDS011;39574;50.534;8.500;2022-08-07T21:57:13;1.6;;;0.7;;
53674;SDS011;39574;50.534;8.500;2022-08-07T22:02:13;2.4;;;0.7;;
53674;SDS011;39574;50.534;8.500;2022-08-07T22:07:13;2.2;;;0.7;;
53674;SDS011;39574;50.534;8.500;2022-08-07T22:12:13;2.2;;;0.7;;
53674;SDS011;39574;50.534;8.500;2022-08-07T22:17:10;2.2;;;0.8;;
53674;SDS011;39574;50.534;8.500;2022-08-07T22:22:10;1.8;;;0.8;;
53674;SDS011;39574;50.534;8.500;2022-08-07T22:27:11;2.0;;;0.8;;
53674;SDS011;39574;50.534;8.500;2022-08-07T22:32:10;2.1;;;0.8;;
53674;SDS011;39574;50.534;8.500;2022-08-07T22:37:10;1.9;;;0.9;;
53674;SDS011;39574;50.534;8.500;2022-08-07T22:42:08;1.8;;;0.9;;
53674;SDS011;39574;50.534;8.500;2022-08-07T22:47:15;1.9;;;0.9;;
53674;SDS011;39574;50.534;8.500;2022-08-07T22:52:11;1.5;;;0.8;;
53674;SDS011;39574;50.534;8.500;2022-08-07T22:57:08;1.9;;;0.7;;
53674;SDS011;39574;50.534;8.500;2022-08-07T23:02:06;1.7;;;0.7;;
53674;SDS011;39574;50.534;8.500;2022-08-07T23:07:10;1.8;;;0.7;;
53674;SDS011;39574;50.534;8.500;2022-08-07T23:12:05;1.7;;;0.8;;
53674;SDS011;39574;50.534;8.500;2022-08-07T23:17:10;1.5;;;0.8;;
53674;SDS011;39574;50.534;8.500;2022-08-07T23:22:05;1.4;;;0.7;;
53674;SDS011;39574;50.534;8.500;2022-08-07T23:27:05;2.0;;;0.7;;
53674;SDS011;39574;50.534;8.500;2022-08-07T23:32:02;2.0;;;0.7;;
53674;SDS011;39574;50.534;8.500;2022-08-07T23:37:06;1.9;;;0.7;;
53674;SDS011;39574;50.534;8.500;2022-08-07T23:42:03;1.9;;;0.7;;
53674;SDS011;39574;50.534;8.500;2022-08-07T23:47:08;2.0;;;0.8;;
53674;SDS011;39574;50.534;8.500;2022-08-07T23:52:00;2.1;;;0.8;;
53674;SDS011;39574;50.534;8.500;2022-08-07T23:57:00;2.0;;;0.8;;
